createdAt,value
2017-12-22T00:01:32.835Z,69.3
2017-12-22T00:11:59.394Z,66.4
2017-12-22T00:21:35.129Z,61.1
2017-12-22T00:31:32.546Z,48.1
2017-12-22T00:41:44.695Z,32.6
2017-12-22T00:51:33.716Z,47.0
2017-12-22T01:01:33.093Z,51.3
2017-12-22T01:11:32.651Z,38.8
2017-12-22T01:21:33.133Z,42.2
2017-12-22T01:31:32.842Z,38.4
2017-12-22T01:41:32.253Z,48.9
2017-12-22T01:51:32.487Z,37.4
2017-12-22T02:01:34.035Z,34.1
2017-12-22T02:11:32.293Z,40.2
2017-12-22T02:21:27.750Z,47.4
2017-12-22T02:41:31.778Z,41.6
2017-12-22T02:51:31.806Z,28.1
2017-12-22T03:01:31.623Z,35.4
2017-12-22T03:11:32.964Z,28.3
2017-12-22T03:21:33.224Z,21.8
2017-12-22T03:32:02.945Z,21.2
2017-12-22T03:41:34.875Z,21.2
2017-12-22T03:51:33.162Z,21.7
2017-12-22T04:01:27.874Z,17.2
2017-12-22T04:11:27.153Z,21.0
2017-12-22T04:21:40.238Z,26.4
2017-12-22T04:31:28.847Z,24.4
2017-12-22T04:41:37.904Z,35.6
2017-12-22T04:51:37.662Z,38.6
2017-12-22T05:01:27.613Z,37.4
2017-12-22T05:11:27.512Z,38.7
2017-12-22T05:21:33.108Z,63.3
2017-12-22T05:31:32.998Z,46.9
2017-12-22T05:41:42.105Z,48.2
2017-12-22T05:51:27.193Z,46.8
2017-12-22T06:01:42.695Z,47.6
2017-12-22T06:11:35.560Z,39.5
2017-12-22T06:21:40.423Z,40.3
2017-12-22T06:31:51.860Z,36.9
2017-12-22T06:41:37.808Z,31.5
2017-12-22T06:51:34.744Z,35.1
2017-12-22T07:01:33.711Z,34.2
2017-12-22T07:11:33.335Z,39.4
2017-12-22T07:21:31.880Z,46.2
2017-12-22T07:31:35.575Z,42.2
2017-12-22T07:41:33.039Z,48.1
2017-12-22T07:51:33.607Z,55.7
2017-12-22T08:01:27.192Z,47.8
2017-12-22T08:11:27.245Z,44.5
2017-12-22T08:21:33.207Z,43.7
2017-12-22T08:31:27.849Z,55.2
2017-12-22T08:41:33.024Z,52.0
2017-12-22T08:51:33.669Z,53.6
2017-12-22T09:01:33.097Z,51.5
2017-12-22T09:11:33.835Z,45.5
2017-12-22T09:21:26.356Z,55.0
2017-12-22T09:31:45.747Z,51.5
2017-12-22T09:41:29.496Z,41.5
2017-12-22T09:51:37.111Z,43.5
2017-12-22T10:02:02.049Z,43.4
2017-12-22T10:11:32.345Z,47.0
2017-12-22T10:21:45.809Z,55.2
2017-12-22T10:31:31.561Z,45.1
2017-12-22T10:41:32.464Z,56.5
2017-12-22T10:51:32.284Z,43.6
2017-12-22T11:11:33.301Z,52.1
2017-12-22T11:21:27.754Z,53.5
2017-12-22T11:31:32.772Z,46.6
2017-12-22T11:42:04.105Z,49.0
2017-12-22T11:51:26.457Z,48.5
2017-12-22T12:01:34.847Z,46.1
2017-12-22T12:11:27.167Z,45.8
2017-12-22T12:21:32.685Z,48.9
2017-12-22T12:41:32.520Z,46.6
2017-12-22T12:51:32.883Z,47.3
2017-12-22T13:01:28.568Z,37.9
2017-12-22T13:11:32.644Z,36.8
2017-12-22T13:21:44.980Z,28.5
2017-12-22T13:31:44.750Z,44.7
2017-12-22T13:41:31.884Z,35.9
2017-12-22T13:51:28.438Z,36.3
2017-12-22T14:02:02.947Z,33.2
2017-12-22T14:11:29.911Z,31.2
2017-12-22T14:21:32.074Z,34.5
2017-12-22T14:31:31.916Z,28.2
2017-12-22T14:41:34.150Z,35.0
2017-12-22T14:51:32.236Z,27.0
2017-12-22T15:01:26.103Z,32.0
2017-12-22T15:11:32.737Z,28.9
2017-12-22T15:21:32.810Z,32.5
2017-12-22T15:31:32.691Z,38.2
2017-12-22T15:41:33.816Z,40.1
2017-12-22T15:51:32.361Z,41.0
2017-12-22T16:01:58.740Z,41.5
2017-12-22T16:11:28.916Z,48.5
2017-12-22T16:21:32.342Z,52.7
2017-12-22T16:31:32.525Z,57.7
2017-12-22T16:41:34.332Z,41.9
2017-12-22T16:51:31.948Z,43.8
2017-12-22T17:01:33.469Z,40.8
2017-12-22T17:11:33.843Z,44.8
2017-12-22T17:21:32.439Z,51.9
2017-12-22T17:31:48.939Z,46.8
2017-12-22T17:41:32.680Z,53.1
2017-12-22T17:51:32.332Z,48.4
2017-12-22T18:01:33.665Z,45.6
2017-12-22T18:21:32.215Z,43.2
2017-12-22T19:02:42.859Z,38.1
2017-12-22T20:41:38.297Z,20.8
2017-12-22T20:51:32.144Z,24.1
2017-12-22T21:01:32.925Z,25.8
2017-12-22T21:11:32.821Z,25.8
2017-12-22T21:21:33.325Z,26.7
2017-12-22T21:31:29.789Z,25.3
2017-12-22T21:41:33.499Z,39.8
2017-12-22T21:51:44.837Z,34.1
2017-12-22T22:01:48.412Z,45.9
2017-12-22T22:11:32.330Z,42.6
2017-12-22T22:21:31.893Z,40.8
2017-12-22T22:32:01.399Z,37.9
2017-12-22T22:41:32.239Z,38.9
2017-12-22T22:51:53.963Z,38.6
2017-12-22T23:01:32.626Z,40.6
2017-12-22T23:12:04.477Z,35.7
2017-12-22T23:21:44.175Z,27.2
2017-12-22T23:31:33.947Z,24.7
